sensor_id;sensor_type;location;lat;lon;timestamp;temperature;humidity
18446;DHT22;9352;50.888;4.466;2022-10-17T00:00:25;14.60;99.90
18446;DHT22;9352;50.888;4.466;2022-10-17T00:02:54;14.60;99.90
18446;DHT22;9352;50.888;4.466;2022-10-17T00:05:21;14.60;99.90
18446;DHT22;9352;50.888;4.466;2022-10-17T00:07:48;14.60;99.90
18446;DHT22;9352;50.888;4.466;2022-10-17T00:10:15;14.60;99.90
18446;DHT22;9352;50.888;4.466;2022-10-17T00:12:42;14.60;99.90
18446;DHT22;9352;50.888;4.466;2022-10-17T00:15:13;14.60;99.90
18446;DHT22;9352;50.888;4.466;2022-10-17T00:17:41;14.50;99.90
18446;DHT22;9352;50.888;4.466;2022-10-17T00:20:09;14.50;99.90
18446;DHT22;9352;50.888;4.466;2022-10-17T00:22:36;14.60;99.90
18446;DHT22;9352;50.888;4.466;2022-10-17T00:25:04;14.60;99.90
18446;DHT22;9352;50.888;4.466;2022-10-17T00:27:33;14.60;99.90
18446;DHT22;9352;50.888;4.466;2022-10-17T00:30:00;14.60;99.90
18446;DHT22;9352;50.888;4.466;2022-10-17T00:32:27;14.70;99.90
18446;DHT22;9352;50.888;4.466;2022-10-17T00:34:56;14.70;99.90
18446;DHT22;9352;50.888;4.466;2022-10-17T00:37:23;14.70;99.90
18446;DHT22;9352;50.888;4.466;2022-10-17T00:39:50;14.80;99.90
18446;DHT22;9352;50.888;4.466;2022-10-17T00:42:17;14.80;99.90
18446;DHT22;9352;50.888;4.466;2022-10-17T00:44:59;14.90;99.90
18446;DHT22;9352;50.888;4.466;2022-10-17T00:47:27;14.90;99.90
18446;DHT22;9352;50.888;4.466;2022-10-17T00:49:56;15.00;99.90
18446;DHT22;9352;50.888;4.466;2022-10-17T00:52:26;15.00;99.90
18446;DHT22;9352;50.888;4.466;2022-10-17T00:54:56;15.00;99.90
18446;DHT22;9352;50.888;4.466;2022-10-17T00:57:25;15.00;99.90
18446;DHT22;9352;50.888;4.466;2022-10-17T00:59:58;15.10;99.90
18446;DHT22;9352;50.888;4.466;2022-10-17T01:02:26;15.10;99.90
18446;DHT22;9352;50.888;4.466;2022-10-17T01:04:53;15.10;99.90
18446;DHT22;9352;50.888;4.466;2022-10-17T01:07:26;15.10;99.90
18446;DHT22;9352;50.888;4.466;2022-10-17T01:09:54;15.10;99.90
18446;DHT22;9352;50.888;4.466;2022-10-17T01:12:24;15.10;99.90
18446;DHT22;9352;50.888;4.466;2022-10-17T01:15:04;15.10;99.90
18446;DHT22;9352;50.888;4.466;2022-10-17T01:17:40;15.10;99.90
18446;DHT22;9352;50.888;4.466;2022-10-17T01:23:23;15.20;99.90
18446;DHT22;9352;50.888;4.466;2022-10-17T01:25:55;15.20;99.90
18446;DHT22;9352;50.888;4.466;2022-10-17T01:28:38;15.30;99.90
18446;DHT22;9352;50.888;4.466;2022-10-17T01:31:11;15.30;99.90
18446;DHT22;9352;50.888;4.466;2022-10-17T01:33:50;15.30;99.90
18446;DHT22;9352;50.888;4.466;2022-10-17T01:36:34;15.40;99.90
18446;DHT22;9352;50.888;4.466;2022-10-17T01:39:06;15.40;99.90
18446;DHT22;9352;50.888;4.466;2022-10-17T01:41:40;15.40;99.90
18446;DHT22;9352;50.888;4.466;2022-10-17T01:44:11;15.50;99.90
18446;DHT22;9352;50.888;4.466;2022-10-17T01:46:42;15.50;99.90
18446;DHT22;9352;50.888;4.466;2022-10-17T01:49:13;15.50;99.90
18446;DHT22;9352;50.888;4.466;2022-10-17T01:51:44;15.60;99.90
18446;DHT22;9352;50.888;4.466;2022-10-17T01:54:15;15.60;99.90
18446;DHT22;9352;50.888;4.466;2022-10-17T01:56:44;15.60;99.90
18446;DHT22;9352;50.888;4.466;2022-10-17T01:59:15;15.70;99.90
18446;DHT22;9352;50.888;4.466;2022-10-17T02:01:48;15.70;99.90
18446;DHT22;9352;50.888;4.466;2022-10-17T02:04:16;15.70;99.90
18446;DHT22;9352;50.888;4.466;2022-10-17T02:06:43;15.80;99.90
18446;DHT22;9352;50.888;4.466;2022-10-17T02:09:16;15.80;99.90
18446;DHT22;9352;50.888;4.466;2022-10-17T02:11:49;15.80;99.90
18446;DHT22;9352;50.888;4.466;2022-10-17T02:14:27;15.80;99.90
18446;DHT22;9352;50.888;4.466;2022-10-17T02:17:04;15.80;99.90
18446;DHT22;9352;50.888;4.466;2022-10-17T02:19:43;15.90;99.90
18446;DHT22;9352;50.888;4.466;2022-10-17T02:22:20;15.90;99.90
18446;DHT22;9352;50.888;4.466;2022-10-17T02:24:56;16.00;99.90
18446;DHT22;9352;50.888;4.466;2022-10-17T02:27:32;16.00;99.90
18446;DHT22;9352;50.888;4.466;2022-10-17T02:30:05;16.00;99.90
18446;DHT22;9352;50.888;4.466;2022-10-17T02:32:40;16.00;99.90
18446;DHT22;9352;50.888;4.466;2022-10-17T02:35:12;16.10;99.90
18446;DHT22;9352;50.888;4.466;2022-10-17T02:37:41;16.10;99.90
18446;DHT22;9352;50.888;4.466;2022-10-17T02:40:11;16.10;99.90
18446;DHT22;9352;50.888;4.466;2022-10-17T02:42:42;16.10;99.90
18446;DHT22;9352;50.888;4.466;2022-10-17T02:45:10;16.10;99.90
18446;DHT22;9352;50.888;4.466;2022-10-17T02:47:44;16.20;99.90
18446;DHT22;9352;50.888;4.466;2022-10-17T02:50:14;16.20;99.90
18446;DHT22;9352;50.888;4.466;2022-10-17T02:52:45;16.20;99.90
18446;DHT22;9352;50.888;4.466;2022-10-17T02:55:16;16.20;99.90
18446;DHT22;9352;50.888;4.466;2022-10-17T02:57:47;16.30;99.90
18446;DHT22;9352;50.888;4.466;2022-10-17T03:00:17;16.30;99.90
18446;DHT22;9352;50.888;4.466;2022-10-17T03:02:47;16.40;99.90
18446;DHT22;9352;50.888;4.466;2022-10-17T03:05:16;16.40;99.90
18446;DHT22;9352;50.888;4.466;2022-10-17T03:07:43;16.40;99.90
18446;DHT22;9352;50.888;4.466;2022-10-17T03:10:11;16.40;99.90
18446;DHT22;9352;50.888;4.466;2022-10-17T03:12:37;16.50;99.90
18446;DHT22;9352;50.888;4.466;2022-10-17T03:15:05;16.50;99.90
18446;DHT22;9352;50.888;4.466;2022-10-17T03:17:32;16.50;99.90
18446;DHT22;9352;50.888;4.466;2022-10-17T03:20:01;16.60;99.90
18446;DHT22;9352;50.888;4.466;2022-10-17T03:22:28;16.60;99.90
18446;DHT22;9352;50.888;4.466;2022-10-17T03:24:54;16.60;99.90
18446;DHT22;9352;50.888;4.466;2022-10-17T03:27:21;16.60;99.90
18446;DHT22;9352;50.888;4.466;2022-10-17T03:29:48;16.60;99.90
18446;DHT22;9352;50.888;4.466;2022-10-17T03:32:15;16.70;99.90
18446;DHT22;9352;50.888;4.466;2022-10-17T03:34:42;16.70;99.90
18446;DHT22;9352;50.888;4.466;2022-10-17T03:37:10;16.70;99.90
18446;DHT22;9352;50.888;4.466;2022-10-17T03:39:37;16.70;99.90
18446;DHT22;9352;50.888;4.466;2022-10-17T03:42:04;16.70;99.90
18446;DHT22;9352;50.888;4.466;2022-10-17T03:44:31;16.70;99.90
18446;DHT22;9352;50.888;4.466;2022-10-17T03:46:58;16.70;99.90
18446;DHT22;9352;50.888;4.466;2022-10-17T03:49:25;16.70;99.90
18446;DHT22;9352;50.888;4.466;2022-10-17T03:51:51;16.70;99.90
18446;DHT22;9352;50.888;4.466;2022-10-17T03:54:20;16.70;99.90
18446;DHT22;9352;50.888;4.466;2022-10-17T03:56:46;16.70;99.90
18446;DHT22;9352;50.888;4.466;2022-10-17T03:59:14;16.70;99.90
18446;DHT22;9352;50.888;4.466;2022-10-17T04:01:41;16.70;99.90
18446;DHT22;9352;50.888;4.466;2022-10-17T04:04:08;16.70;99.90
18446;DHT22;9352;50.888;4.466;2022-10-17T04:06:36;16.70;99.90
18446;DHT22;9352;50.888;4.466;2022-10-17T04:09:03;16.70;99.90
18446;DHT22;9352;50.888;4.466;2022-10-17T04:11:32;16.70;99.90
18446;DHT22;9352;50.888;4.466;2022-10-17T04:13:59;16.70;99.90
18446;DHT22;9352;50.888;4.466;2022-10-17T04:16:26;16.70;99.90
18446;DHT22;9352;50.888;4.466;2022-10-17T04:18:54;16.70;99.90
18446;DHT22;9352;50.888;4.466;2022-10-17T04:21:22;16.70;99.90
18446;DHT22;9352;50.888;4.466;2022-10-17T04:23:53;16.70;99.90
18446;DHT22;9352;50.888;4.466;2022-10-17T04:26:20;16.70;99.90
18446;DHT22;9352;50.888;4.466;2022-10-17T04:28:48;16.60;99.90
18446;DHT22;9352;50.888;4.466;2022-10-17T04:31:16;16.60;99.90
18446;DHT22;9352;50.888;4.466;2022-10-17T04:33:46;16.60;99.90
18446;DHT22;9352;50.888;4.466;2022-10-17T04:36:14;16.60;99.90
18446;DHT22;9352;50.888;4.466;2022-10-17T04:38:41;16.60;99.90
18446;DHT22;9352;50.888;4.466;2022-10-17T04:41:10;16.50;99.90
18446;DHT22;9352;50.888;4.466;2022-10-17T04:43:38;16.60;99.90
18446;DHT22;9352;50.888;4.466;2022-10-17T04:46:07;16.50;99.90
18446;DHT22;9352;50.888;4.466;2022-10-17T04:48:38;16.50;99.90
18446;DHT22;9352;50.888;4.466;2022-10-17T04:51:06;16.50;99.90
18446;DHT22;9352;50.888;4.466;2022-10-17T04:53:35;16.50;99.90
18446;DHT22;9352;50.888;4.466;2022-10-17T04:56:07;16.50;99.90
18446;DHT22;9352;50.888;4.466;2022-10-17T04:58:35;16.50;99.90
18446;DHT22;9352;50.888;4.466;2022-10-17T05:01:07;16.60;99.90
18446;DHT22;9352;50.888;4.466;2022-10-17T05:03:35;16.50;99.90
18446;DHT22;9352;50.888;4.466;2022-10-17T05:06:06;16.50;99.90
18446;DHT22;9352;50.888;4.466;2022-10-17T05:08:33;16.60;99.90
18446;DHT22;9352;50.888;4.466;2022-10-17T05:11:00;16.60;99.90
18446;DHT22;9352;50.888;4.466;2022-10-17T05:13:27;16.50;99.90
18446;DHT22;9352;50.888;4.466;2022-10-17T05:15:58;16.60;99.90
18446;DHT22;9352;50.888;4.466;2022-10-17T05:18:26;16.60;99.90
18446;DHT22;9352;50.888;4.466;2022-10-17T05:20:54;16.60;99.90
18446;DHT22;9352;50.888;4.466;2022-10-17T05:23:21;16.60;99.90
18446;DHT22;9352;50.888;4.466;2022-10-17T05:25:53;16.70;99.90
18446;DHT22;9352;50.888;4.466;2022-10-17T05:28:20;16.70;99.90
18446;DHT22;9352;50.888;4.466;2022-10-17T05:30:46;16.70;99.90
18446;DHT22;9352;50.888;4.466;2022-10-17T05:33:13;16.80;99.90
18446;DHT22;9352;50.888;4.466;2022-10-17T05:35:42;16.80;99.90
18446;DHT22;9352;50.888;4.466;2022-10-17T05:38:08;16.80;99.90
18446;DHT22;9352;50.888;4.466;2022-10-17T05:40:35;16.80;99.90
18446;DHT22;9352;50.888;4.466;2022-10-17T05:43:03;16.90;99.90
18446;DHT22;9352;50.888;4.466;2022-10-17T05:45:30;16.90;99.90
18446;DHT22;9352;50.888;4.466;2022-10-17T05:47:57;16.90;99.90
18446;DHT22;9352;50.888;4.466;2022-10-17T05:50:24;16.90;99.90
18446;DHT22;9352;50.888;4.466;2022-10-17T05:52:54;16.90;99.90
18446;DHT22;9352;50.888;4.466;2022-10-17T05:55:20;17.00;99.90
18446;DHT22;9352;50.888;4.466;2022-10-17T05:57:47;17.00;99.90
18446;DHT22;9352;50.888;4.466;2022-10-17T06:00:14;17.00;99.90
18446;DHT22;9352;50.888;4.466;2022-10-17T06:02:42;17.10;99.90
18446;DHT22;9352;50.888;4.466;2022-10-17T06:05:10;17.10;99.90
18446;DHT22;9352;50.888;4.466;2022-10-17T06:07:37;17.10;99.90
18446;DHT22;9352;50.888;4.466;2022-10-17T06:10:06;17.10;99.90
18446;DHT22;9352;50.888;4.466;2022-10-17T06:12:33;17.10;99.90
18446;DHT22;9352;50.888;4.466;2022-10-17T06:15:00;17.10;99.90
18446;DHT22;9352;50.888;4.466;2022-10-17T06:17:27;17.20;99.90
18446;DHT22;9352;50.888;4.466;2022-10-17T06:19:55;17.20;99.90
18446;DHT22;9352;50.888;4.466;2022-10-17T06:22:22;17.20;99.90
18446;DHT22;9352;50.888;4.466;2022-10-17T06:24:48;17.20;99.90
18446;DHT22;9352;50.888;4.466;2022-10-17T06:27:18;17.30;99.90
18446;DHT22;9352;50.888;4.466;2022-10-17T06:29:45;17.30;99.90
18446;DHT22;9352;50.888;4.466;2022-10-17T06:32:12;17.40;99.90
18446;DHT22;9352;50.888;4.466;2022-10-17T06:34:39;17.40;99.90
18446;DHT22;9352;50.888;4.466;2022-10-17T06:37:06;17.40;99.90
18446;DHT22;9352;50.888;4.466;2022-10-17T06:39:33;17.40;99.90
18446;DHT22;9352;50.888;4.466;2022-10-17T06:42:00;17.50;99.90
18446;DHT22;9352;50.888;4.466;2022-10-17T06:44:29;17.50;99.90
18446;DHT22;9352;50.888;4.466;2022-10-17T06:46:56;17.50;99.90
18446;DHT22;9352;50.888;4.466;2022-10-17T06:49:23;17.60;99.90
18446;DHT22;9352;50.888;4.466;2022-10-17T06:51:51;17.60;99.90
18446;DHT22;9352;50.888;4.466;2022-10-17T06:54:17;17.70;99.90
18446;DHT22;9352;50.888;4.466;2022-10-17T06:56:44;17.70;99.90
18446;DHT22;9352;50.888;4.466;2022-10-17T06:59:11;17.80;99.90
18446;DHT22;9352;50.888;4.466;2022-10-17T07:01:41;17.80;99.90
18446;DHT22;9352;50.888;4.466;2022-10-17T07:04:08;17.90;99.90
18446;DHT22;9352;50.888;4.466;2022-10-17T07:06:35;18.00;99.90
18446;DHT22;9352;50.888;4.466;2022-10-17T07:09:02;18.00;99.90
18446;DHT22;9352;50.888;4.466;2022-10-17T07:11:31;18.00;99.90
18446;DHT22;9352;50.888;4.466;2022-10-17T07:13:58;18.10;99.90
18446;DHT22;9352;50.888;4.466;2022-10-17T07:16:25;18.10;99.90
18446;DHT22;9352;50.888;4.466;2022-10-17T07:18:54;18.20;99.90
18446;DHT22;9352;50.888;4.466;2022-10-17T07:21:21;18.20;99.90
18446;DHT22;9352;50.888;4.466;2022-10-17T07:23:48;18.30;99.90
18446;DHT22;9352;50.888;4.466;2022-10-17T07:26:17;18.40;99.90
18446;DHT22;9352;50.888;4.466;2022-10-17T07:28:45;18.50;99.90
18446;DHT22;9352;50.888;4.466;2022-10-17T07:31:15;18.60;99.90
18446;DHT22;9352;50.888;4.466;2022-10-17T07:33:43;18.60;99.90
18446;DHT22;9352;50.888;4.466;2022-10-17T07:36:14;18.50;99.90
18446;DHT22;9352;50.888;4.466;2022-10-17T07:38:41;18.50;99.90
18446;DHT22;9352;50.888;4.466;2022-10-17T07:41:09;18.50;99.90
18446;DHT22;9352;50.888;4.466;2022-10-17T07:43:37;18.40;99.90
18446;DHT22;9352;50.888;4.466;2022-10-17T07:46:06;18.30;99.90
18446;DHT22;9352;50.888;4.466;2022-10-17T07:48:33;18.10;99.90
18446;DHT22;9352;50.888;4.466;2022-10-17T07:51:01;18.00;99.90
18446;DHT22;9352;50.888;4.466;2022-10-17T07:53:30;18.00;99.90
18446;DHT22;9352;50.888;4.466;2022-10-17T07:55:57;18.00;99.90
18446;DHT22;9352;50.888;4.466;2022-10-17T07:58:24;17.90;99.90
18446;DHT22;9352;50.888;4.466;2022-10-17T08:00:53;17.90;99.90
18446;DHT22;9352;50.888;4.466;2022-10-17T08:03:22;17.90;99.90
18446;DHT22;9352;50.888;4.466;2022-10-17T08:05:49;17.80;99.90
18446;DHT22;9352;50.888;4.466;2022-10-17T08:08:16;17.80;99.90
18446;DHT22;9352;50.888;4.466;2022-10-17T08:10:44;17.80;99.90
18446;DHT22;9352;50.888;4.466;2022-10-17T08:13:11;17.80;99.90
18446;DHT22;9352;50.888;4.466;2022-10-17T08:15:38;17.80;99.90
18446;DHT22;9352;50.888;4.466;2022-10-17T08:18:04;17.80;99.90
18446;DHT22;9352;50.888;4.466;2022-10-17T08:20:31;17.80;99.90
18446;DHT22;9352;50.888;4.466;2022-10-17T08:22:58;17.70;99.90
18446;DHT22;9352;50.888;4.466;2022-10-17T08:25:26;17.80;99.90
18446;DHT22;9352;50.888;4.466;2022-10-17T08:27:54;17.70;99.90
18446;DHT22;9352;50.888;4.466;2022-10-17T08:30:21;17.60;99.90
18446;DHT22;9352;50.888;4.466;2022-10-17T08:32:47;17.60;99.90
18446;DHT22;9352;50.888;4.466;2022-10-17T08:35:14;17.70;99.90
18446;DHT22;9352;50.888;4.466;2022-10-17T08:37:41;17.70;99.90
18446;DHT22;9352;50.888;4.466;2022-10-17T08:40:14;17.70;99.90
18446;DHT22;9352;50.888;4.466;2022-10-17T08:43:12;17.80;99.90
18446;DHT22;9352;50.888;4.466;2022-10-17T08:45:46;17.90;99.90
18446;DHT22;9352;50.888;4.466;2022-10-17T08:48:18;18.00;99.90
18446;DHT22;9352;50.888;4.466;2022-10-17T08:50:49;18.00;99.90
18446;DHT22;9352;50.888;4.466;2022-10-17T08:53:20;18.00;99.90
18446;DHT22;9352;50.888;4.466;2022-10-17T08:55:49;18.00;99.90
18446;DHT22;9352;50.888;4.466;2022-10-17T08:58:20;18.00;99.90
18446;DHT22;9352;50.888;4.466;2022-10-17T09:00:54;18.00;99.90
18446;DHT22;9352;50.888;4.466;2022-10-17T09:03:37;18.00;99.90
18446;DHT22;9352;50.888;4.466;2022-10-17T09:06:17;17.90;99.90
18446;DHT22;9352;50.888;4.466;2022-10-17T09:08:53;17.80;99.90
18446;DHT22;9352;50.888;4.466;2022-10-17T09:11:36;17.80;99.90
18446;DHT22;9352;50.888;4.466;2022-10-17T09:14:20;17.80;99.90
18446;DHT22;9352;50.888;4.466;2022-10-17T09:17:03;17.80;99.90
18446;DHT22;9352;50.888;4.466;2022-10-17T09:19:34;17.80;99.90
18446;DHT22;9352;50.888;4.466;2022-10-17T09:22:04;17.80;99.90
18446;DHT22;9352;50.888;4.466;2022-10-17T09:24:40;17.80;99.90
18446;DHT22;9352;50.888;4.466;2022-10-17T09:27:22;17.80;99.90
18446;DHT22;9352;50.888;4.466;2022-10-17T09:29:54;17.70;99.90
18446;DHT22;9352;50.888;4.466;2022-10-17T09:32:26;17.80;99.90
18446;DHT22;9352;50.888;4.466;2022-10-17T09:34:54;17.70;99.90
18446;DHT22;9352;50.888;4.466;2022-10-17T09:37:29;17.70;99.90
18446;DHT22;9352;50.888;4.466;2022-10-17T09:39:56;17.70;99.90
18446;DHT22;9352;50.888;4.466;2022-10-17T09:42:25;17.80;99.90
18446;DHT22;9352;50.888;4.466;2022-10-17T09:45:00;17.80;99.90
18446;DHT22;9352;50.888;4.466;2022-10-17T09:47:33;17.90;99.90
18446;DHT22;9352;50.888;4.466;2022-10-17T09:50:00;17.90;99.90
18446;DHT22;9352;50.888;4.466;2022-10-17T09:52:33;18.00;99.90
18446;DHT22;9352;50.888;4.466;2022-10-17T09:55:03;18.00;99.90
18446;DHT22;9352;50.888;4.466;2022-10-17T09:57:52;18.00;99.90
18446;DHT22;9352;50.888;4.466;2022-10-17T10:00:23;18.00;99.90
18446;DHT22;9352;50.888;4.466;2022-10-17T10:02:50;18.10;99.90
18446;DHT22;9352;50.888;4.466;2022-10-17T10:05:18;18.00;99.90
18446;DHT22;9352;50.888;4.466;2022-10-17T10:08:03;18.10;99.90
18446;DHT22;9352;50.888;4.466;2022-10-17T10:10:31;18.00;99.90
18446;DHT22;9352;50.888;4.466;2022-10-17T10:13:04;18.00;99.90
18446;DHT22;9352;50.888;4.466;2022-10-17T10:15:35;18.00;99.90
18446;DHT22;9352;50.888;4.466;2022-10-17T10:18:27;18.00;99.90
18446;DHT22;9352;50.888;4.466;2022-10-17T10:21:04;18.00;99.90
18446;DHT22;9352;50.888;4.466;2022-10-17T10:23:32;18.00;99.90
18446;DHT22;9352;50.888;4.466;2022-10-17T10:26:02;18.00;99.90
18446;DHT22;9352;50.888;4.466;2022-10-17T10:28:31;18.00;99.90
18446;DHT22;9352;50.888;4.466;2022-10-17T10:31:02;18.00;99.90
18446;DHT22;9352;50.888;4.466;2022-10-17T10:33:32;18.10;99.90
18446;DHT22;9352;50.888;4.466;2022-10-17T10:36:01;18.20;99.90
18446;DHT22;9352;50.888;4.466;2022-10-17T10:38:30;18.30;99.90
18446;DHT22;9352;50.888;4.466;2022-10-17T10:41:02;18.50;99.90
18446;DHT22;9352;50.888;4.466;2022-10-17T10:43:33;18.50;99.90
18446;DHT22;9352;50.888;4.466;2022-10-17T10:46:05;18.60;99.90
18446;DHT22;9352;50.888;4.466;2022-10-17T10:48:34;18.60;99.90
18446;DHT22;9352;50.888;4.466;2022-10-17T10:51:04;18.60;99.90
18446;DHT22;9352;50.888;4.466;2022-10-17T10:53:40;18.60;99.90
18446;DHT22;9352;50.888;4.466;2022-10-17T10:56:12;18.70;99.90
18446;DHT22;9352;50.888;4.466;2022-10-17T10:58:52;18.60;99.90
18446;DHT22;9352;50.888;4.466;2022-10-17T11:01:27;18.60;99.90
18446;DHT22;9352;50.888;4.466;2022-10-17T11:04:26;18.60;99.90
18446;DHT22;9352;50.888;4.466;2022-10-17T11:07:00;18.60;99.90
18446;DHT22;9352;50.888;4.466;2022-10-17T11:09:36;18.60;99.90
18446;DHT22;9352;50.888;4.466;2022-10-17T11:12:12;18.60;99.90
18446;DHT22;9352;50.888;4.466;2022-10-17T11:14:46;18.50;99.90
18446;DHT22;9352;50.888;4.466;2022-10-17T11:17:25;18.50;99.90
18446;DHT22;9352;50.888;4.466;2022-10-17T11:20:08;18.50;99.90
18446;DHT22;9352;50.888;4.466;2022-10-17T11:22:40;18.60;99.90
18446;DHT22;9352;50.888;4.466;2022-10-17T11:25:19;18.60;99.90
18446;DHT22;9352;50.888;4.466;2022-10-17T11:27:47;18.60;99.90
18446;DHT22;9352;50.888;4.466;2022-10-17T11:30:18;18.60;99.90
18446;DHT22;9352;50.888;4.466;2022-10-17T11:32:50;18.60;99.90
18446;DHT22;9352;50.888;4.466;2022-10-17T11:35:22;18.50;99.90
18446;DHT22;9352;50.888;4.466;2022-10-17T11:37:54;18.50;99.90
18446;DHT22;9352;50.888;4.466;2022-10-17T11:40:28;18.50;99.90
18446;DHT22;9352;50.888;4.466;2022-10-17T11:42:58;18.50;99.90
18446;DHT22;9352;50.888;4.466;2022-10-17T11:45:28;18.40;99.90
18446;DHT22;9352;50.888;4.466;2022-10-17T11:48:01;18.50;99.90
18446;DHT22;9352;50.888;4.466;2022-10-17T11:50:34;18.50;99.90
18446;DHT22;9352;50.888;4.466;2022-10-17T11:53:05;18.50;99.90
18446;DHT22;9352;50.888;4.466;2022-10-17T11:55:35;18.50;99.90
18446;DHT22;9352;50.888;4.466;2022-10-17T11:58:17;18.60;99.90
18446;DHT22;9352;50.888;4.466;2022-10-17T12:00:53;18.60;99.90
18446;DHT22;9352;50.888;4.466;2022-10-17T12:03:43;18.60;99.90
18446;DHT22;9352;50.888;4.466;2022-10-17T12:06:15;18.60;99.90
18446;DHT22;9352;50.888;4.466;2022-10-17T12:08:48;18.60;99.90
18446;DHT22;9352;50.888;4.466;2022-10-17T12:11:29;18.60;99.90
18446;DHT22;9352;50.888;4.466;2022-10-17T12:13:59;18.50;99.90
18446;DHT22;9352;50.888;4.466;2022-10-17T12:16:44;18.60;99.90
18446;DHT22;9352;50.888;4.466;2022-10-17T12:19:39;18.60;99.90
18446;DHT22;9352;50.888;4.466;2022-10-17T12:22:19;18.70;99.90
18446;DHT22;9352;50.888;4.466;2022-10-17T12:24:54;18.70;99.90
18446;DHT22;9352;50.888;4.466;2022-10-17T12:27:40;18.80;99.90
18446;DHT22;9352;50.888;4.466;2022-10-17T12:30:18;18.80;99.90
18446;DHT22;9352;50.888;4.466;2022-10-17T12:33:00;18.80;99.90
18446;DHT22;9352;50.888;4.466;2022-10-17T12:35:31;18.70;99.90
18446;DHT22;9352;50.888;4.466;2022-10-17T12:38:19;18.70;99.90
18446;DHT22;9352;50.888;4.466;2022-10-17T12:40:57;18.80;99.90
18446;DHT22;9352;50.888;4.466;2022-10-17T12:43:49;18.80;99.90
18446;DHT22;9352;50.888;4.466;2022-10-17T12:46:49;18.70;99.90
18446;DHT22;9352;50.888;4.466;2022-10-17T12:49:21;18.80;99.90
18446;DHT22;9352;50.888;4.466;2022-10-17T12:52:18;18.90;99.90
18446;DHT22;9352;50.888;4.466;2022-10-17T12:54:47;19.00;99.90
18446;DHT22;9352;50.888;4.466;2022-10-17T12:57:33;19.10;99.90
18446;DHT22;9352;50.888;4.466;2022-10-17T13:00:03;19.10;99.90
18446;DHT22;9352;50.888;4.466;2022-10-17T13:02:31;19.10;99.90
18446;DHT22;9352;50.888;4.466;2022-10-17T13:05:05;19.20;99.90
18446;DHT22;9352;50.888;4.466;2022-10-17T13:07:35;19.30;99.90
18446;DHT22;9352;50.888;4.466;2022-10-17T13:10:03;19.40;99.90
18446;DHT22;9352;50.888;4.466;2022-10-17T13:12:33;19.50;99.90
18446;DHT22;9352;50.888;4.466;2022-10-17T13:15:04;19.50;99.90
18446;DHT22;9352;50.888;4.466;2022-10-17T13:17:33;19.60;99.90
18446;DHT22;9352;50.888;4.466;2022-10-17T13:20:00;19.60;99.90
18446;DHT22;9352;50.888;4.466;2022-10-17T13:22:29;19.60;99.90
18446;DHT22;9352;50.888;4.466;2022-10-17T13:25:13;19.70;99.90
18446;DHT22;9352;50.888;4.466;2022-10-17T13:27:40;19.80;99.90
18446;DHT22;9352;50.888;4.466;2022-10-17T13:30:26;19.90;99.90
18446;DHT22;9352;50.888;4.466;2022-10-17T13:32:53;19.90;99.90
18446;DHT22;9352;50.888;4.466;2022-10-17T13:35:26;20.00;99.90
18446;DHT22;9352;50.888;4.466;2022-10-17T13:37:54;20.00;99.90
18446;DHT22;9352;50.888;4.466;2022-10-17T13:40:25;20.00;99.90
18446;DHT22;9352;50.888;4.466;2022-10-17T13:42:55;20.00;99.90
18446;DHT22;9352;50.888;4.466;2022-10-17T13:45:28;20.00;99.90
18446;DHT22;9352;50.888;4.466;2022-10-17T13:47:56;19.90;99.90
18446;DHT22;9352;50.888;4.466;2022-10-17T13:50:30;19.80;99.90
18446;DHT22;9352;50.888;4.466;2022-10-17T13:53:19;19.80;99.90
18446;DHT22;9352;50.888;4.466;2022-10-17T13:55:52;19.70;99.90
18446;DHT22;9352;50.888;4.466;2022-10-17T13:58:19;19.70;99.90
18446;DHT22;9352;50.888;4.466;2022-10-17T14:00:47;19.60;99.90
18446;DHT22;9352;50.888;4.466;2022-10-17T14:03:15;19.60;99.90
18446;DHT22;9352;50.888;4.466;2022-10-17T14:06:06;19.60;99.90
18446;DHT22;9352;50.888;4.466;2022-10-17T14:08:37;19.50;99.90
18446;DHT22;9352;50.888;4.466;2022-10-17T14:11:17;19.50;99.90
18446;DHT22;9352;50.888;4.466;2022-10-17T14:13:48;19.50;99.90
18446;DHT22;9352;50.888;4.466;2022-10-17T14:16:15;19.50;99.90
18446;DHT22;9352;50.888;4.466;2022-10-17T14:18:46;19.50;99.90
18446;DHT22;9352;50.888;4.466;2022-10-17T14:21:18;19.50;99.90
18446;DHT22;9352;50.888;4.466;2022-10-17T14:23:46;19.50;99.90
18446;DHT22;9352;50.888;4.466;2022-10-17T14:26:17;19.50;99.90
18446;DHT22;9352;50.888;4.466;2022-10-17T14:28:47;19.50;99.90
18446;DHT22;9352;50.888;4.466;2022-10-17T14:31:23;19.60;99.90
18446;DHT22;9352;50.888;4.466;2022-10-17T14:33:52;19.60;99.90
18446;DHT22;9352;50.888;4.466;2022-10-17T14:36:28;19.60;99.90
18446;DHT22;9352;50.888;4.466;2022-10-17T14:38:55;19.50;99.90
18446;DHT22;9352;50.888;4.466;2022-10-17T14:41:25;19.50;99.90
18446;DHT22;9352;50.888;4.466;2022-10-17T14:43:57;19.50;99.90
18446;DHT22;9352;50.888;4.466;2022-10-17T14:46:26;19.50;99.90
18446;DHT22;9352;50.888;4.466;2022-10-17T14:48:55;19.50;99.90
18446;DHT22;9352;50.888;4.466;2022-10-17T14:51:22;19.50;99.90
18446;DHT22;9352;50.888;4.466;2022-10-17T14:54:00;19.50;99.90
18446;DHT22;9352;50.888;4.466;2022-10-17T14:56:37;19.50;99.90
18446;DHT22;9352;50.888;4.466;2022-10-17T14:59:04;19.50;99.90
18446;DHT22;9352;50.888;4.466;2022-10-17T15:01:32;19.50;99.90
18446;DHT22;9352;50.888;4.466;2022-10-17T15:04:00;19.40;99.90
18446;DHT22;9352;50.888;4.466;2022-10-17T15:06:29;19.40;99.90
18446;DHT22;9352;50.888;4.466;2022-10-17T15:08:57;19.30;99.90
18446;DHT22;9352;50.888;4.466;2022-10-17T15:11:24;19.30;99.90
18446;DHT22;9352;50.888;4.466;2022-10-17T15:13:52;19.30;99.90
18446;DHT22;9352;50.888;4.466;2022-10-17T15:16:20;19.30;99.90
18446;DHT22;9352;50.888;4.466;2022-10-17T15:18:48;19.30;99.90
18446;DHT22;9352;50.888;4.466;2022-10-17T15:21:17;19.20;99.90
18446;DHT22;9352;50.888;4.466;2022-10-17T15:23:44;19.20;99.90
18446;DHT22;9352;50.888;4.466;2022-10-17T15:26:16;19.20;99.90
18446;DHT22;9352;50.888;4.466;2022-10-17T15:28:43;19.20;99.90
18446;DHT22;9352;50.888;4.466;2022-10-17T15:31:15;19.20;99.90
18446;DHT22;9352;50.888;4.466;2022-10-17T15:33:43;19.20;99.90
18446;DHT22;9352;50.888;4.466;2022-10-17T15:36:21;19.10;99.90
18446;DHT22;9352;50.888;4.466;2022-10-17T15:38:50;19.10;99.90
18446;DHT22;9352;50.888;4.466;2022-10-17T15:41:18;19.10;99.90
18446;DHT22;9352;50.888;4.466;2022-10-17T15:43:45;19.00;99.90
18446;DHT22;9352;50.888;4.466;2022-10-17T15:46:17;18.90;99.90
18446;DHT22;9352;50.888;4.466;2022-10-17T15:48:46;18.90;99.90
18446;DHT22;9352;50.888;4.466;2022-10-17T15:51:13;18.80;99.90
18446;DHT22;9352;50.888;4.466;2022-10-17T15:53:40;18.70;99.90
18446;DHT22;9352;50.888;4.466;2022-10-17T15:56:07;18.70;99.90
18446;DHT22;9352;50.888;4.466;2022-10-17T15:58:41;18.60;99.90
18446;DHT22;9352;50.888;4.466;2022-10-17T16:01:18;18.60;99.90
18446;DHT22;9352;50.888;4.466;2022-10-17T16:03:45;18.50;99.90
18446;DHT22;9352;50.888;4.466;2022-10-17T16:06:14;18.50;99.90
18446;DHT22;9352;50.888;4.466;2022-10-17T16:08:41;18.40;99.90
18446;DHT22;9352;50.888;4.466;2022-10-17T16:11:14;18.40;99.90